Harbor Beach, Michigan
Current Conditions -  °F | °C
As of 11:55 PM on Monday 22 Dec 2014 (Local Time) from KBAX Reporting Station
Unknown Precip Unknown Precip  
Wind Chill: 29°   Ceiling: 4400
Heat Index: 34°   Visibility: 5mi
Dew Point: 32°   Wind: 6mph
Humidity: 94%   Direction: 120°ESE
Pressure: 29.92"   Gusts: NA
Location:  43.84°N, 82.65°W
Report Text: KBAX 230455Z AUTO 12005KT 5SM UP OVC044 01/00 A2992 RMK AO2 T00100001
Loading
Personal Weather Stations






























Interactive Weather Map New forecast layout! Learn more

10-Day Weather Forecast

Advertisements
Track Severe Weather on mobile